Time;durP1;ratioP1;P1;durP2;ratioP2;P2;SDS_P1;SDS_P2;PMS_P1;PMS_P2;Temp;Humidity;BMP_temperature;BMP_pressure;BME280_temperature;BME280_humidity;BME280_pressure;Samples;Min_cycle;Max_cycle;Signal;HPM_P1;HPM_P2
2023/07/30 00:01:43;;;;;;;1.20;1.03;;;;;19.90;96597.00;;;;5046230;28;20208;-86
2023/07/30 00:04:32;;;;;;;3.93;0.97;;;;;19.80;96610.00;;;;5037369;28;20236;-86
2023/07/30 00:07:22;;;;;;;1.83;1.00;;;;;19.40;96601.00;;;;5042877;28;20228;-83
2023/07/30 00:10:12;;;;;;;1.73;1.27;;;;;20.10;96605.00;;;;5038020;28;20565;-85
2023/07/30 00:13:01;;;;;;;1.30;1.20;;;;;20.10;96605.00;;;;5035952;28;20217;-85
2023/07/30 00:15:50;;;;;;;1.40;1.13;;;;;19.80;96595.00;;;;5046336;28;20216;-86
2023/07/30 00:18:39;;;;;;;1.10;0.90;;;;;19.80;96584.00;;;;5047575;28;20197;-88
2023/07/30 00:21:28;;;;;;;1.67;1.23;;;;;20.10;96585.00;;;;5044622;28;20197;-86
2023/07/30 00:24:19;;;;;;;1.47;1.37;;;;;19.80;96584.00;;;;5048459;28;20223;-86
2023/07/30 00:27:08;;;;;;;2.93;1.00;;;;;19.80;96575.00;;;;5046692;28;20702;-87
2023/07/30 00:29:57;;;;;;;4.27;1.17;;;;;19.60;96572.00;;;;5043803;28;20286;-87
2023/07/30 00:32:46;;;;;;;4.07;1.27;;;;;19.60;96576.00;;;;5039633;28;20241;-86
2023/07/30 00:35:35;;;;;;;1.67;1.30;;;;;19.90;96572.00;;;;5044271;28;20208;-87
2023/07/30 00:38:24;;;;;;;3.37;1.50;;;;;20.20;96582.00;;;;5044772;28;20197;-87
2023/07/30 00:41:15;;;;;;;1.60;1.37;;;;;20.00;96573.00;;;;5042560;28;20547;-87
2023/07/30 00:44:04;;;;;;;1.20;1.10;;;;;20.20;96571.00;;;;5036354;28;20220;-87
2023/07/30 00:46:54;;;;;;;0.97;0.83;;;;;20.10;96576.00;;;;5036926;28;20224;-88
2023/07/30 00:49:43;;;;;;;1.30;1.03;;;;;19.90;96584.00;;;;5043339;28;20227;-86
2023/07/30 00:52:32;;;;;;;1.33;1.23;;;;;19.60;96579.00;;;;5037613;28;20204;-86
2023/07/30 00:55:22;;;;;;;1.47;1.20;;;;;19.50;96578.00;;;;5047463;28;20215;-85
2023/07/30 00:58:13;;;;;;;7.13;1.60;;;;;19.40;96572.00;;;;5043079;28;20200;-86
2023/07/30 01:01:02;;;;;;;2.33;1.10;;;;;19.90;96575.00;;;;5047258;28;20219;-87
2023/07/30 01:03:51;;;;;;;1.13;1.03;;;;;20.10;96567.00;;;;5041993;28;20239;-86
2023/07/30 01:06:41;;;;;;;1.33;1.20;;;;;20.20;96569.00;;;;5036477;28;20201;-87
2023/07/30 01:09:30;;;;;;;2.57;1.43;;;;;20.10;96571.00;;;;5038718;28;20211;-86
2023/07/30 01:12:19;;;;;;;7.43;2.57;;;;;20.20;96559.00;;;;5039914;28;20209;-87
2023/07/30 01:15:11;;;;;;;5.47;1.63;;;;;19.90;96569.00;;;;5044925;28;20204;-86
2023/07/30 01:18:00;;;;;;;1.50;1.27;;;;;19.90;96570.00;;;;5039531;28;20197;-88
2023/07/30 01:20:49;;;;;;;1.57;1.30;;;;;20.00;96583.00;;;;5033499;28;20197;-86
2023/07/30 01:23:40;;;;;;;2.00;1.33;;;;;19.80;96585.00;;;;5038725;28;20233;-86
2023/07/30 01:26:34;;;;;;;3.47;1.57;;;;;20.20;96593.00;;;;5034608;28;20202;-86
2023/07/30 01:29:26;;;;;;;2.30;1.60;;;;;20.40;96595.00;;;;5044569;28;20201;-87
2023/07/30 01:32:15;;;;;;;5.10;1.63;;;;;20.50;96599.00;;;;5040024;28;20688;-85
2023/07/30 01:35:06;;;;;;;1.47;1.30;;;;;20.50;96586.00;;;;5046103;28;20201;-86
2023/07/30 01:37:55;;;;;;;1.60;1.40;;;;;20.50;96598.00;;;;5045514;28;20223;-86
2023/07/30 01:40:46;;;;;;;3.40;1.60;;;;;20.60;96602.00;;;;5033320;28;20197;-86
2023/07/30 01:43:35;;;;;;;3.40;2.10;;;;;20.60;96609.00;;;;5038761;28;20303;-85
2023/07/30 01:46:24;;;;;;;4.60;2.20;;;;;20.60;96597.00;;;;5042750;28;20205;-86
2023/07/30 01:49:13;;;;;;;2.07;1.60;;;;;20.20;96604.00;;;;5047418;28;20600;-85
2023/07/30 01:52:02;;;;;;;1.50;1.40;;;;;20.30;96601.00;;;;5039790;28;20255;-84
2023/07/30 01:54:51;;;;;;;3.65;1.50;;;;;20.30;96606.00;;;;5042467;28;20208;-87
2023/07/30 01:57:42;;;;;;;1.60;1.50;;;;;20.20;96603.00;;;;5044873;28;20208;-86
2023/07/30 02:00:31;;;;;;;4.37;1.57;;;;;20.20;96611.00;;;;5040599;28;20728;-87
2023/07/30 02:03:20;;;;;;;3.07;1.47;;;;;20.10;96597.00;;;;5041520;28;20232;-88
2023/07/30 02:06:11;;;;;;;3.73;2.10;;;;;20.40;96611.00;;;;5043775;28;20203;-87
2023/07/30 02:09:00;;;;;;;4.07;2.00;;;;;20.50;96611.00;;;;5040767;28;20225;-85
2023/07/30 02:11:49;;;;;;;1.20;1.10;;;;;20.60;96605.00;;;;5046879;28;20197;-86
2023/07/30 02:14:39;;;;;;;2.10;1.47;;;;;20.60;96610.00;;;;5035295;28;20251;-85
2023/07/30 02:17:28;;;;;;;4.20;1.50;;;;;20.50;96617.00;;;;5043811;28;20189;-87
2023/07/30 02:20:18;;;;;;;2.37;1.60;;;;;20.60;96606.00;;;;5040392;28;20204;-86
2023/07/30 02:23:07;;;;;;;2.50;1.23;;;;;20.30;96598.00;;;;5036231;28;20220;-86
2023/07/30 02:25:56;;;;;;;2.13;1.27;;;;;20.40;96603.00;;;;5035250;28;20205;-86
2023/07/30 02:28:45;;;;;;;1.87;1.70;;;;;20.20;96600.00;;;;5042170;28;20221;-85
2023/07/30 02:31:35;;;;;;;1.47;1.37;;;;;20.10;96604.00;;;;5042980;28;20232;-85
2023/07/30 02:34:25;;;;;;;2.00;1.53;;;;;20.20;96608.00;;;;5043592;28;20224;-85
2023/07/30 02:37:14;;;;;;;2.10;1.60;;;;;20.10;96601.00;;;;5043557;28;20675;-86
2023/07/30 02:40:04;;;;;;;4.10;1.13;;;;;20.40;96600.00;;;;5044280;28;20208;-85
2023/07/30 02:42:54;;;;;;;2.43;1.67;;;;;20.50;96602.00;;;;5040675;28;20725;-86
2023/07/30 02:45:43;;;;;;;1.87;1.17;;;;;20.50;96597.00;;;;5044810;28;20209;-85
2023/07/30 02:48:33;;;;;;;5.73;1.70;;;;;20.50;96596.00;;;;5043729;28;20654;-85
2023/07/30 02:51:22;;;;;;;3.23;2.90;;;;;20.50;96607.00;;;;5044682;28;20211;-85
2023/07/30 02:54:11;;;;;;;3.57;1.50;;;;;20.50;96607.00;;;;5041409;28;20713;-83
2023/07/30 02:57:00;;;;;;;1.40;1.20;;;;;20.10;96613.00;;;;5046572;28;20698;-85
2023/07/30 02:59:50;;;;;;;2.20;1.30;;;;;19.90;96611.00;;;;5048171;28;20193;-84
2023/07/30 03:02:39;;;;;;;4.07;1.50;;;;;20.30;96614.00;;;;5047258;28;20216;-85
2023/07/30 03:05:29;;;;;;;1.20;1.10;;;;;20.30;96616.00;;;;5046631;28;20208;-85
2023/07/30 03:08:18;;;;;;;3.60;1.43;;;;;20.40;96623.00;;;;5047835;28;20216;-86
2023/07/30 03:11:07;;;;;;;2.17;1.43;;;;;20.40;96621.00;;;;5043588;28;20215;-85
2023/07/30 03:13:56;;;;;;;4.03;1.90;;;;;20.40;96625.00;;;;5051157;28;20227;-85
2023/07/30 03:16:46;;;;;;;2.33;2.13;;;;;20.20;96626.00;;;;5046199;28;20201;-86
2023/07/30 03:19:35;;;;;;;2.77;1.27;;;;;20.30;96626.00;;;;5050484;28;20192;-85
2023/07/30 03:22:25;;;;;;;2.73;1.77;;;;;20.40;96625.00;;;;5043744;28;20568;-85
2023/07/30 03:25:14;;;;;;;2.93;1.47;;;;;20.40;96626.00;;;;5046537;28;20197;-85
2023/07/30 03:28:04;;;;;;;3.57;1.20;;;;;20.40;96620.00;;;;5042261;28;20242;-84
2023/07/30 03:30:53;;;;;;;3.63;1.40;;;;;20.20;96620.00;;;;5045874;28;20202;-84
2023/07/30 03:33:43;;;;;;;1.97;1.77;;;;;20.20;96620.00;;;;5046124;28;20237;-84
2023/07/30 03:36:32;;;;;;;1.63;1.43;;;;;20.30;96615.00;;;;5043248;28;20215;-84
2023/07/30 03:39:23;;;;;;;2.07;1.77;;;;;20.20;96610.00;;;;5042521;28;20208;-84
2023/07/30 03:42:12;;;;;;;3.73;1.23;;;;;19.90;96618.00;;;;5044685;28;20243;-84
2023/07/30 03:45:01;;;;;;;4.10;1.40;;;;;20.20;96617.00;;;;5047903;28;20220;-85
2023/07/30 03:47:50;;;;;;;2.10;1.70;;;;;20.30;96621.00;;;;5051197;28;20201;-84
2023/07/30 03:50:39;;;;;;;5.87;1.70;;;;;20.30;96620.00;;;;5047734;28;20223;-85
2023/07/30 03:53:28;;;;;;;6.53;1.80;;;;;20.40;96616.00;;;;5045948;28;20217;-85
2023/07/30 03:56:18;;;;;;;3.27;1.97;;;;;20.40;96620.00;;;;5050902;28;20209;-85
2023/07/30 03:59:07;;;;;;;3.30;1.83;;;;;20.50;96622.00;;;;5049460;28;20193;-85
2023/07/30 04:01:56;;;;;;;1.73;1.37;;;;;20.40;96622.00;;;;5040470;28;20209;-85
2023/07/30 04:04:46;;;;;;;1.87;1.77;;;;;20.30;96628.00;;;;5042722;28;20575;-85
2023/07/30 04:07:35;;;;;;;1.87;1.50;;;;;20.10;96621.00;;;;5052406;28;20210;-86
2023/07/30 04:10:25;;;;;;;3.03;1.90;;;;;20.20;96622.00;;;;5039188;28;20239;-85
2023/07/30 04:13:15;;;;;;;2.13;1.40;;;;;20.10;96626.00;;;;5045116;28;20217;-85
2023/07/30 04:16:04;;;;;;;2.53;1.40;;;;;20.20;96621.00;;;;5049615;28;20210;-85
2023/07/30 04:18:53;;;;;;;5.80;1.53;;;;;20.30;96621.00;;;;5047374;28;20198;-86
2023/07/30 04:21:42;;;;;;;1.87;1.67;;;;;20.40;96630.00;;;;5046375;28;20204;-86
2023/07/30 04:24:32;;;;;;;6.03;2.03;;;;;20.40;96630.00;;;;5045663;28;20436;-85
2023/07/30 04:27:21;;;;;;;2.33;1.47;;;;;20.40;96620.00;;;;5045744;28;20200;-85
2023/07/30 04:30:12;;;;;;;3.30;1.90;;;;;20.40;96621.00;;;;5046709;28;20224;-86
2023/07/30 04:33:02;;;;;;;2.23;1.60;;;;;20.40;96617.00;;;;5047128;28;20224;-86
2023/07/30 04:35:51;;;;;;;1.57;1.30;;;;;20.30;96611.00;;;;5043451;28;20224;-86
2023/07/30 04:38:40;;;;;;;2.87;1.10;;;;;20.30;96596.00;;;;5041328;28;20201;-85
2023/07/30 04:41:29;;;;;;;1.90;1.60;;;;;20.10;96598.00;;;;5038229;28;20205;-86
2023/07/30 04:44:18;;;;;;;1.90;1.70;;;;;19.60;96593.00;;;;5042798;28;20285;-86
2023/07/30 04:47:09;;;;;;;8.10;2.10;;;;;19.80;96586.00;;;;5041431;28;20211;-85
2023/07/30 04:49:58;;;;;;;4.07;2.07;;;;;20.00;96586.00;;;;5046221;28;20291;-86
2023/07/30 04:52:47;;;;;;;2.30;1.70;;;;;20.00;96578.00;;;;5043240;28;20662;-85
2023/07/30 04:55:36;;;;;;;2.53;1.57;;;;;20.00;96585.00;;;;5036361;28;20202;-85
2023/07/30 04:58:25;;;;;;;1.97;1.43;;;;;20.20;96587.00;;;;5040469;28;20201;-86
2023/07/30 05:01:14;;;;;;;6.63;2.87;;;;;20.20;96587.00;;;;5039136;28;20197;-86
2023/07/30 05:04:05;;;;;;;3.23;1.97;;;;;19.90;96583.00;;;;5039603;28;20239;-86
2023/07/30 05:06:54;;;;;;;4.13;1.77;;;;;19.80;96595.00;;;;5043197;28;20202;-86
2023/07/30 05:09:44;;;;;;;2.07;1.73;;;;;20.10;96584.00;;;;5041151;28;20232;-85
2023/07/30 05:12:33;;;;;;;2.27;2.07;;;;;20.30;96588.00;;;;5036737;28;20221;-87
2023/07/30 05:15:22;;;;;;;1.83;1.63;;;;;20.30;96587.00;;;;5041480;28;20669;-86
2023/07/30 05:18:11;;;;;;;1.50;1.40;;;;;20.00;96591.00;;;;5042827;28;20208;-86
2023/07/30 05:21:01;;;;;;;1.47;1.37;;;;;20.00;96579.00;;;;5046026;28;20193;-86
2023/07/30 05:23:51;;;;;;;2.70;1.77;;;;;20.20;96574.00;;;;5043834;28;20217;-87
2023/07/30 05:26:40;;;;;;;2.23;2.03;;;;;20.30;96584.00;;;;5039715;28;20210;-87
2023/07/30 05:29:29;;;;;;;3.23;1.83;;;;;20.40;96585.00;;;;5042923;28;20227;-86
2023/07/30 05:32:18;;;;;;;1.67;1.57;;;;;20.10;96578.00;;;;5047147;28;20215;-87
2023/07/30 05:35:08;;;;;;;13.33;8.00;;;;;20.10;96580.00;;;;5042203;28;20193;-86
2023/07/30 05:37:59;;;;;;;14.33;10.53;;;;;20.00;96583.00;;;;5040350;28;20684;-87
2023/07/30 05:40:48;;;;;;;5.80;2.97;;;;;20.00;96580.00;;;;5033314;28;20339;-87
2023/07/30 05:43:37;;;;;;;2.90;2.10;;;;;19.90;96581.00;;;;5045787;28;20239;-86
2023/07/30 05:46:26;;;;;;;4.83;2.07;;;;;19.90;96582.00;;;;5047297;28;20200;-88
2023/07/30 05:49:15;;;;;;;2.03;1.70;;;;;20.30;96595.00;;;;5034431;28;20221;-87
2023/07/30 05:52:06;;;;;;;1.80;1.70;;;;;20.50;96587.00;;;;5040296;28;20201;-87
2023/07/30 05:54:56;;;;;;;4.40;2.83;;;;;20.60;96576.00;;;;5040568;28;20575;-87
2023/07/30 05:57:45;;;;;;;5.67;2.77;;;;;20.30;96589.00;;;;5038361;28;20664;-87
2023/07/30 06:00:35;;;;;;;6.70;3.50;;;;;20.20;96581.00;;;;5043301;28;20211;-88
2023/07/30 06:03:26;;;;;;;13.53;7.30;;;;;20.10;96577.00;;;;5042603;28;20224;-88
2023/07/30 06:06:15;;;;;;;5.53;4.07;;;;;20.40;96569.00;;;;5047286;28;20278;-87
2023/07/30 06:09:04;;;;;;;7.67;3.20;;;;;20.50;96571.00;;;;5046927;28;20254;-88
2023/07/30 06:11:57;;;;;;;7.80;4.00;;;;;20.40;96585.00;;;;5036287;28;20212;-87
2023/07/30 06:14:46;;;;;;;6.73;2.10;;;;;20.10;96591.00;;;;5038717;28;20201;-87
2023/07/30 06:17:35;;;;;;;5.03;2.60;;;;;20.50;96590.00;;;;5039763;28;20209;-88
2023/07/30 06:20:24;;;;;;;7.63;2.60;;;;;20.80;96580.00;;;;5029442;28;20201;-87
2023/07/30 06:23:14;;;;;;;8.00;3.30;;;;;21.00;96588.00;;;;5041182;28;20228;-87
2023/07/30 06:26:03;;;;;;;2.70;2.00;;;;;21.00;96600.00;;;;5037841;28;20209;-88
2023/07/30 06:28:53;;;;;;;6.40;2.97;;;;;21.00;96607.00;;;;5042847;28;20246;-87
2023/07/30 06:31:43;;;;;;;6.90;2.93;;;;;21.20;96599.00;;;;5043919;28;20209;-87
2023/07/30 06:34:32;;;;;;;3.07;2.13;;;;;21.20;96604.00;;;;5043640;28;20223;-88
2023/07/30 06:37:21;;;;;;;5.23;2.43;;;;;21.40;96604.00;;;;5041993;28;20193;-87
2023/07/30 06:40:10;;;;;;;4.13;2.20;;;;;21.50;96606.00;;;;5038620;28;20201;-88
2023/07/30 06:42:59;;;;;;;4.67;2.10;;;;;21.60;96613.00;;;;5030224;28;20211;-88
2023/07/30 06:45:50;;;;;;;3.20;2.40;;;;;21.20;96613.00;;;;5042939;28;20204;-87
2023/07/30 06:48:39;;;;;;;2.87;2.40;;;;;21.30;96618.00;;;;5044968;28;20205;-87
2023/07/30 06:51:29;;;;;;;3.30;2.30;;;;;21.20;96602.00;;;;5044565;28;20228;-88
2023/07/30 06:54:19;;;;;;;2.50;2.00;;;;;21.20;96601.00;;;;5042530;28;20224;-87
2023/07/30 06:57:08;;;;;;;4.53;2.83;;;;;21.20;96610.00;;;;5040338;28;20250;-88
2023/07/30 06:59:57;;;;;;;4.43;2.27;;;;;21.10;96602.00;;;;5041656;28;20192;-88
2023/07/30 07:02:48;;;;;;;2.63;2.03;;;;;21.50;96603.00;;;;5044043;28;20225;-88
2023/07/30 07:05:37;;;;;;;2.13;1.93;;;;;21.80;96616.00;;;;5038562;28;20201;-87
2023/07/30 07:08:27;;;;;;;3.43;2.37;;;;;21.80;96610.00;;;;5038857;28;20203;-88
2023/07/30 07:11:16;;;;;;;2.80;1.80;;;;;22.10;96602.00;;;;5041028;28;20221;-89
2023/07/30 07:14:05;;;;;;;3.07;1.80;;;;;22.50;96600.00;;;;5044812;28;20220;-89
2023/07/30 07:16:56;;;;;;;2.23;1.60;;;;;22.60;96592.00;;;;5037320;28;20205;-88
2023/07/30 07:19:47;;;;;;;2.07;1.97;;;;;22.00;96584.00;;;;5041755;28;20200;-88
2023/07/30 07:22:36;;;;;;;2.00;1.73;;;;;21.90;96592.00;;;;5043898;28;20616;-87
2023/07/30 07:25:25;;;;;;;1.73;1.60;;;;;22.10;96588.00;;;;5040515;28;20208;-89
2023/07/30 07:28:15;;;;;;;2.97;1.73;;;;;22.20;96597.00;;;;5040132;28;20201;-88
2023/07/30 07:31:04;;;;;;;4.83;2.30;;;;;22.50;96602.00;;;;5040262;28;20235;-89
2023/07/30 07:33:53;;;;;;;3.97;2.57;;;;;22.80;96599.00;;;;5043285;28;20809;-87
2023/07/30 07:36:44;;;;;;;2.60;2.37;;;;;22.30;96600.00;;;;5038734;28;20629;-88
2023/07/30 07:39:34;;;;;;;3.77;2.30;;;;;22.70;96605.00;;;;5046170;28;20216;-87
2023/07/30 07:42:23;;;;;;;2.30;2.10;;;;;22.90;96594.00;;;;5042647;28;20206;-89
2023/07/30 07:45:13;;;;;;;2.27;1.80;;;;;23.30;96581.00;;;;5045112;28;20200;-88
2023/07/30 07:48:02;;;;;;;1.90;1.70;;;;;23.60;96593.00;;;;5040958;28;20563;-89
2023/07/30 07:50:51;;;;;;;2.77;2.57;;;;;23.50;96589.00;;;;5041977;28;20307;-88
2023/07/30 07:53:42;;;;;;;2.50;2.13;;;;;23.40;96589.00;;;;5041659;28;20225;-89
2023/07/30 07:56:31;;;;;;;1.70;1.57;;;;;23.30;96588.00;;;;5038645;28;20695;-88
2023/07/30 07:59:21;;;;;;;3.33;1.63;;;;;23.50;96588.00;;;;5037295;28;20196;-88
2023/07/30 08:02:10;;;;;;;2.73;1.97;;;;;23.40;96604.00;;;;5043623;28;20197;-89
2023/07/30 08:04:59;;;;;;;2.30;2.00;;;;;23.40;96598.00;;;;5043574;28;20216;-88
2023/07/30 08:07:50;;;;;;;3.50;2.10;;;;;23.90;96606.00;;;;5050320;28;20268;-86
2023/07/30 08:10:43;;;;;;;4.40;3.23;;;;;24.30;96597.00;;;;5051023;28;20240;-87
2023/07/30 08:13:33;;;;;;;2.20;2.00;;;;;24.90;96607.00;;;;5046327;28;20221;-87
2023/07/30 08:16:23;;;;;;;2.77;1.70;;;;;24.50;96605.00;;;;5050508;28;20197;-89
2023/07/30 08:19:12;;;;;;;3.67;2.03;;;;;24.50;96610.00;;;;5047909;28;20254;-89
2023/07/30 08:22:02;;;;;;;2.97;2.17;;;;;25.10;96604.00;;;;5040665;28;20211;-88
2023/07/30 08:24:51;;;;;;;2.90;2.07;;;;;24.70;96595.00;;;;5040023;28;20208;-88
2023/07/30 08:27:42;;;;;;;2.87;2.27;;;;;25.10;96591.00;;;;5039853;28;20211;-87
2023/07/30 08:30:31;;;;;;;2.30;2.10;;;;;25.50;96582.00;;;;5036239;28;20197;-88
2023/07/30 08:33:20;;;;;;;4.17;2.10;;;;;26.10;96582.00;;;;5044371;28;20206;-87
2023/07/30 08:36:09;;;;;;;2.60;2.20;;;;;26.00;96581.00;;;;5043228;28;20739;-88
2023/07/30 08:38:59;;;;;;;2.73;1.60;;;;;26.10;96575.00;;;;5035508;28;20215;-89
2023/07/30 08:41:48;;;;;;;2.40;1.93;;;;;26.60;96576.00;;;;5041711;28;20193;-87
2023/07/30 08:44:39;;;;;;;2.30;2.10;;;;;26.60;96566.00;;;;5044533;28;20694;-86
2023/07/30 08:47:28;;;;;;;2.30;2.10;;;;;27.30;96566.00;;;;5044557;28;20214;-87
2023/07/30 08:50:17;;;;;;;2.10;1.57;;;;;27.30;96573.00;;;;5040056;28;20215;-87
2023/07/30 08:53:09;;;;;;;1.87;1.73;;;;;27.40;96575.00;;;;5041587;28;20231;-87
2023/07/30 08:55:59;;;;;;;1.97;1.73;;;;;26.80;96580.00;;;;5042983;28;22023;-87
2023/07/30 08:58:49;;;;;;;2.43;1.47;;;;;26.50;96577.00;;;;5044570;28;20194;-86
2023/07/30 09:01:41;;;;;;;1.67;1.53;;;;;26.60;96565.00;;;;5047042;28;20204;-87
2023/07/30 09:04:31;;;;;;;3.50;2.03;;;;;26.80;96555.00;;;;5045015;28;20366;-87
2023/07/30 09:07:21;;;;;;;8.23;1.80;;;;;27.70;96560.00;;;;5042811;28;20239;-87
2023/07/30 09:10:10;;;;;;;1.90;1.80;;;;;27.90;96574.00;;;;5040849;28;20212;-87
2023/07/30 09:12:59;;;;;;;2.20;2.00;;;;;28.40;96564.00;;;;5044903;28;20228;-87
2023/07/30 09:15:50;;;;;;;3.70;2.10;;;;;28.90;96570.00;;;;5043931;28;20203;-87
2023/07/30 09:18:45;;;;;;;2.00;1.73;;;;;28.60;96579.00;;;;5039678;28;20783;-88
2023/07/30 09:21:35;;;;;;;1.87;1.70;;;;;28.80;96584.00;;;;5037843;28;20202;-87
2023/07/30 09:24:24;;;;;;;3.70;1.53;;;;;29.20;96569.00;;;;5039737;28;20223;-87
2023/07/30 09:27:13;;;;;;;2.30;1.90;;;;;29.40;96575.00;;;;5039311;28;20204;-88
2023/07/30 09:30:04;;;;;;;4.80;1.33;;;;;29.20;96571.00;;;;5043594;28;20213;-87
2023/07/30 09:32:54;;;;;;;2.00;1.70;;;;;28.10;96566.00;;;;5046378;28;20225;-87
2023/07/30 09:35:46;;;;;;;2.20;1.80;;;;;27.50;96564.00;;;;5043790;28;20215;-90
2023/07/30 09:38:40;;;;;;;3.80;1.60;;;;;27.80;96581.00;;;;5043290;28;20211;-87
2023/07/30 09:41:29;;;;;;;2.53;1.30;;;;;29.00;96583.00;;;;5043403;28;20829;-87
2023/07/30 09:44:19;;;;;;;1.77;1.60;;;;;29.30;96563.00;;;;5044902;28;20223;-87
2023/07/30 09:47:11;;;;;;;2.23;1.40;;;;;30.10;96555.00;;;;5040365;28;20219;-87
2023/07/30 09:50:00;;;;;;;1.53;1.20;;;;;30.20;96544.00;;;;5043797;28;20203;-87
2023/07/30 09:52:51;;;;;;;1.80;1.70;;;;;30.40;96545.00;;;;5043356;28;20325;-87
2023/07/30 09:55:40;;;;;;;2.17;1.67;;;;;28.90;96571.00;;;;5037476;28;20212;-87
2023/07/30 09:58:29;;;;;;;1.50;1.33;;;;;29.70;96545.00;;;;5042342;28;20214;-87
2023/07/30 10:01:20;;;;;;;1.43;1.33;;;;;29.40;96535.00;;;;5044645;28;20208;-88
2023/07/30 10:04:10;;;;;;;2.03;1.43;;;;;30.20;96522.00;;;;5039757;28;20298;-88
2023/07/30 10:07:02;;;;;;;1.67;1.57;;;;;31.50;96521.00;;;;5043541;28;20196;-87
2023/07/30 10:09:55;;;;;;;1.60;1.43;;;;;31.60;96554.00;;;;5035722;28;20218;-87
2023/07/30 10:12:45;;;;;;;3.40;1.67;;;;;30.80;96560.00;;;;5042428;28;20233;-87
2023/07/30 10:15:36;;;;;;;1.33;1.17;;;;;30.10;96562.00;;;;5035210;28;20226;-88
2023/07/30 10:18:26;;;;;;;1.43;1.33;;;;;29.60;96577.00;;;;5044599;28;20212;-87
2023/07/30 10:21:25;;;;;;;2.70;1.20;;;;;29.10;96560.00;;;;5044680;28;20204;-87
2023/07/30 10:24:14;;;;;;;1.27;1.17;;;;;29.00;96568.00;;;;5042716;28;20231;-87
2023/07/30 10:27:09;;;;;;;2.37;1.70;;;;;28.40;96562.00;;;;5045311;28;20215;-87
2023/07/30 10:30:12;;;;;;;1.60;1.30;;;;;27.50;96564.00;;;;5034691;28;21570;-88
2023/07/30 10:33:05;;;;;;;1.57;1.10;;;;;25.80;96558.00;;;;5033933;28;20229;-87
2023/07/30 10:35:56;;;;;;;1.37;1.27;;;;;26.70;96563.00;;;;5039963;28;20207;-88
2023/07/30 10:38:45;;;;;;;1.43;1.20;;;;;27.20;96518.00;;;;5038527;28;20202;-87
2023/07/30 10:41:46;;;;;;;1.33;1.20;;;;;27.20;96551.00;;;;5038653;28;20203;-90
2023/07/30 10:44:53;;;;;;;1.53;0.90;;;;;28.00;96518.00;;;;5038000;28;20330;-88
2023/07/30 10:47:49;;;;;;;1.80;1.30;;;;;28.30;96495.00;;;;5030954;28;20206;-87
2023/07/30 10:50:50;;;;;;;1.80;1.70;;;;;28.20;96527.00;;;;5033913;28;20711;-89
2023/07/30 10:53:43;;;;;;;2.50;1.33;;;;;28.90;96519.00;;;;5045664;28;20749;-89
2023/07/30 10:56:55;;;;;;;1.80;1.17;;;;;28.70;96508.00;;;;5041078;28;20239;-90
2023/07/30 11:00:07;;;;;;;1.60;1.50;;;;;29.00;96521.00;;;;5035211;28;20200;-89
2023/07/30 11:03:37;;;;;;;1.20;0.90;;;;;30.40;96524.00;;;;5041231;28;20328;-90
2023/07/30 11:06:27;;;;;;;1.67;1.20;;;;;30.00;96493.00;;;;4956334;28;20212;-91
2023/07/30 11:09:21;;;;;;;2.40;1.20;;;;;31.60;96489.00;;;;5044912;28;20206;-91
2023/07/30 11:12:10;;;;;;;1.53;1.40;;;;;31.90;96490.00;;;;5036603;28;20223;-89
2023/07/30 11:15:05;;;;;;;1.13;1.00;;;;;31.30;96528.00;;;;5040532;28;20207;-87
2023/07/30 11:18:20;;;;;;;;;;;;;;;;;;;;;
2023/07/30 11:26:51;;;;;;;2.00;0.90;;;;;33.00;96483.00;;;;5042453;28;20221;-89
2023/07/30 11:33:55;;;;;;;1.00;0.80;;;;;33.90;96458.00;;;;5018631;23;20330;-66
2023/07/30 11:36:44;;;;;;;1.20;1.02;;;;;33.70;96460.00;;;;5046073;28;20212;-66
2023/07/30 11:39:34;;;;;;;0.98;0.93;;;;;34.00;96446.00;;;;5060421;28;20221;-66
2023/07/30 11:42:23;;;;;;;1.00;0.90;;;;;34.50;96448.00;;;;5063611;28;20231;-66
2023/07/30 11:45:22;;;;;;;0.80;0.80;;;;;34.20;96491.00;;;;5066363;28;20221;-66
2023/07/30 11:48:12;;;;;;;0.70;0.70;;;;;32.20;96515.00;;;;5066811;28;20201;-66
2023/07/30 11:51:02;;;;;;;1.38;1.00;;;;;31.20;96516.00;;;;5064754;28;20203;-66
2023/07/30 11:53:53;;;;;;;0.65;0.65;;;;;31.40;96509.00;;;;5049639;28;20778;-66
2023/07/30 11:56:42;;;;;;;0.75;0.75;;;;;32.20;96447.00;;;;5045782;28;20212;-66
2023/07/30 11:59:32;;;;;;;1.80;1.02;;;;;32.50;96447.00;;;;5053941;28;20200;-66
2023/07/30 12:02:22;;;;;;;1.20;1.05;;;;;32.00;96447.00;;;;5064672;28;20224;-66
2023/07/30 12:05:12;;;;;;;0.60;0.60;;;;;33.00;96446.00;;;;5064955;28;20611;-66
2023/07/30 12:08:03;;;;;;;0.82;0.82;;;;;33.00;96441.00;;;;5067172;28;20209;-66
2023/07/30 12:10:52;;;;;;;0.98;0.80;;;;;34.40;96434.00;;;;5068527;28;20216;-66
2023/07/30 12:13:46;;;;;;;1.17;1.08;;;;;34.70;96480.00;;;;5063449;28;20198;-66
2023/07/30 12:16:35;;;;;;;1.77;1.00;;;;;33.00;96453.00;;;;5058971;28;20208;-66
2023/07/30 12:19:24;;;;;;;1.08;0.70;;;;;34.00;96460.00;;;;5062068;28;20196;-66
2023/07/30 12:22:13;;;;;;;2.05;0.82;;;;;36.00;96419.00;;;;5064533;28;20236;-66
2023/07/30 12:25:04;;;;;;;1.30;1.20;;;;;34.90;96421.00;;;;5059053;28;20226;-66
2023/07/30 12:27:53;;;;;;;1.20;1.10;;;;;33.60;96476.00;;;;5060442;28;20218;-66
2023/07/30 12:30:42;;;;;;;1.38;1.27;;;;;33.70;96406.00;;;;5059762;28;20204;-66
2023/07/30 12:33:31;;;;;;;1.52;1.42;;;;;33.50;96479.00;;;;5054321;28;20619;-66
2023/07/30 12:36:20;;;;;;;1.25;1.15;;;;;33.60;96478.00;;;;5055146;28;20215;-66
2023/07/30 12:39:09;;;;;;;2.60;1.33;;;;;34.60;96445.00;;;;5057401;28;20211;-66
2023/07/30 12:42:00;;;;;;;1.88;1.30;;;;;34.50;96412.00;;;;5058285;28;20201;-66
2023/07/30 12:44:49;;;;;;;2.20;0.98;;;;;31.90;96438.00;;;;5052942;28;20216;-65
2023/07/30 12:47:38;;;;;;;1.33;1.17;;;;;31.50;96400.00;;;;5054990;28;20688;-66
2023/07/30 12:50:27;;;;;;;1.20;1.10;;;;;31.50;96467.00;;;;5051763;28;20592;-68
2023/07/30 12:53:16;;;;;;;1.38;1.25;;;;;30.40;96400.00;;;;5048574;28;20200;-65
2023/07/30 12:56:05;;;;;;;1.42;1.20;;;;;31.40;96407.00;;;;5052855;28;20238;-67
2023/07/30 12:58:55;;;;;;;1.20;1.10;;;;;31.90;96426.00;;;;5053201;28;20570;-65
2023/07/30 13:01:44;;;;;;;1.63;1.30;;;;;32.90;96447.00;;;;5051449;28;20200;-65
2023/07/30 13:04:35;;;;;;;1.67;1.20;;;;;31.30;96393.00;;;;5069570;28;20234;-63
2023/07/30 13:07:24;;;;;;;1.08;1.02;;;;;32.40;96388.00;;;;5056666;28;20205;-66
2023/07/30 13:10:13;;;;;;;2.20;1.30;;;;;31.60;96453.00;;;;5058279;28;20210;-68
2023/07/30 13:13:02;;;;;;;1.95;1.77;;;;;32.00;96459.00;;;;5056040;28;20694;-66
2023/07/30 13:15:57;;;;;;;1.98;1.20;;;;;32.70;96454.00;;;;5055781;28;20225;-66
2023/07/30 13:18:46;;;;;;;2.53;1.67;;;;;31.70;96461.00;;;;5053658;28;20711;-66
2023/07/30 13:21:35;;;;;;;1.88;1.45;;;;;31.30;96388.00;;;;5062889;28;20622;-66
2023/07/30 13:24:24;;;;;;;1.13;1.02;;;;;32.40;96401.00;;;;5061981;28;20233;-67
2023/07/30 13:27:14;;;;;;;1.60;1.40;;;;;32.20;96401.00;;;;5054097;28;20205;-65
2023/07/30 13:30:04;;;;;;;1.35;1.02;;;;;33.00;96391.00;;;;5057816;28;20207;-66
2023/07/30 13:32:55;;;;;;;1.25;1.15;;;;;34.10;96394.00;;;;5051746;28;20656;-66
2023/07/30 13:35:44;;;;;;;1.20;1.10;;;;;35.40;96410.00;;;;5050630;28;20229;-66
2023/07/30 13:38:33;;;;;;;1.52;1.40;;;;;36.10;96441.00;;;;5065141;28;20211;-67
2023/07/30 13:41:22;;;;;;;2.00;1.08;;;;;33.70;96390.00;;;;5057962;28;20200;-66
2023/07/30 13:44:11;;;;;;;1.73;1.60;;;;;35.80;96386.00;;;;5059743;28;20234;-66
2023/07/30 13:47:00;;;;;;;1.10;1.00;;;;;36.10;96397.00;;;;5046980;28;20201;-66
2023/07/30 13:49:51;;;;;;;1.17;1.08;;;;;35.50;96426.00;;;;5049004;28;20192;-66
2023/07/30 13:52:42;;;;;;;1.65;1.50;;;;;35.90;96417.00;;;;5059023;28;20272;-66
2023/07/30 13:55:31;;;;;;;2.35;1.35;;;;;37.50;96389.00;;;;5062505;28;20219;-66
2023/07/30 13:58:19;;;;;;;3.10;1.38;;;32.50;90.90;38.30;96383.00;;;;5054910;28;20207;-66
2023/07/30 14:01:09;;;;;;;2.45;1.30;;;33.20;90.70;38.80;96373.00;;;;5063378;28;20671;-66
2023/07/30 14:03:58;;;;;;;2.40;2.20;;;33.80;90.00;39.30;96378.00;;;;5066284;28;20292;-66
2023/07/30 14:06:48;;;;;;;2.30;1.10;;;34.50;87.10;39.10;96368.00;;;;5065109;28;20195;-68
2023/07/30 14:09:37;;;;;;;1.05;0.95;;;34.90;83.90;38.30;96383.00;;;;5065849;28;20840;-67
2023/07/30 14:12:26;;;;;;;7.57;1.30;;;34.90;79.00;38.10;96380.00;;;;5061517;28;20207;-68
2023/07/30 14:15:15;;;;;;;1.17;1.08;;;34.70;79.10;38.10;96382.00;;;;5048419;28;20213;-68
2023/07/30 14:18:05;;;;;;;1.17;1.08;;;34.50;80.00;37.90;96383.00;;;;5064795;28;20203;-67
2023/07/30 14:20:54;;;;;;;1.52;1.23;;;34.50;78.30;37.60;96391.00;;;;5049852;28;20202;-67